メインページ
METAR-TAF:

METAR-TAF

空港 :

ダニエル・K・イノウエ国際空港

ホノルル, ハワイ州, アメリカ合衆国

緯度: 21-19-39N, 経度: 157-56-35W, 海抜: 3m

現時点の気象観測

当レポートは26分前の05:53(UTC)に作成
北東の風 11kt
気温 24°C
湿度 74%
気圧 1022 hPa
視程: 16.1km
高度2000ftの雲はほとんどない
高度3900ftの千切れ雲あり
高度4900ftの千切れ雲あり

METAR: PHNL 130553Z 05011KT 10SM FEW020 BKN039 BKN049 24/19 A3018 RMK AO2 RAB01E19B39E49 SLP220 VCSH NE P0000 60000 T02390189 10267 20228 53005

時間: 20:19 (06:19 UTC)

予報

当レポートは45分前の05:34(UTC)に作成
予報は13日の 06時(UTC)から 14日の 12時(UTC)まで有効
北東の風 12kt
視程: 10km
高度2500ftの雲は散在している
高度3500ftの千切れ雲あり
近辺でにわか雨
13日の 06時(UTC)から 13日の 09時(UTC)まで一時的に
北/北東の風 12kt、最大18ktの突風を伴う
13日の 0900時(UTC)から
北東の風 12kt
視程: 10km
高度2500ftの雲はほとんどない
高度4000ftの雲は散在している
13日の 2100時(UTC)から
北東の風 20kt、最大28ktの突風を伴う
視程: 10km
高度2500ftの雲はほとんどない
高度4000ftの雲は散在している
14日の 0600時(UTC)から
東/北東の風 12kt、最大20ktの突風を伴う
視程: 10km
高度2500ftの雲はほとんどない
高度4000ftの雲は散在している

TAF: PHNL 130534Z 1306/1412 05012KT P6SM VCSH SCT025 BKN035 TEMPO 1306/1309 03012G18KT FM130900 05012KT P6SM FEW025 SCT040 FM132100 05020G28KT P6SM FEW025 SCT040 FM140600 06012G20KT P6SM FEW025 SCT040

4,000以上の空港の気象観測と天気予報(METAR報とTAF報)

利用可能な観測所は地図上に黄色い丸と赤い丸で示す。

丸の上にカーソルを重ねると観測所名を参照できる。

次にクリックすると気象観測と天気予報を参照できる。

マップの切り替え:黒色「×」印の緑ボタンをクリックして拡大、「-」印の緑ボタンをクリックして縮小、緑色の三角印をクリックして隣りの地図に切り替え


METAR-TAF: